Great Hebei — VRFU6 — position and weather

sailwx.info

Track history (hours):
 
Tides and Currents Weather Stations Pressure Air Temp Water Temp Dewpoint Dewpoint Depression Visibility Wind Speed Wind Dir Waves Ship Positions

Great Hebei

Last reported at 2016-May-26 15:09 UTC. Time now 2016-May-27 04:35 UTC.
Position N 36°06' E 123°19'.

Length 295 m; draft 8.7 m.

Type: Cargo ship. MMSI: 477617100.

Date/timePositionNaut miles runAvg speedWind from/ knotsBaromVisibWave heightAir tempDewpointWater temp
2016-May-26 15:09N 36°06' E 123°19'134 9.0
2016-May-26 00:18N 38°03' E 121°59'8210.5
2016-May-25 16:33N 38°37' E 120°24'1310.5
2016-May-25 15:20N 38°39' E 120°08'103 9.5
2016-May-25 04:26N 38°57' E 117°58'8 8.9
2016-May-25 03:32N 38°58' E 117°48'0 0.2
2016-May-25 02:32N 38°58' E 117°48'0 0.0
2016-May-25 01:32N 38°58' E 117°48'0 0.0
2016-May-25 00:32N 38°58' E 117°48'0 0.0
2016-May-24 23:32N 38°58' E 117°48'0 0.0
2016-May-24 22:14N 38°58' E 117°48'0 0.0
2016-May-24 21:32N 38°58' E 117°48'0 0.0
2016-May-24 20:26N 38°58' E 117°48'0 0.0
2016-May-24 19:32N 38°58' E 117°48'0 0.0
2016-May-24 18:32N 38°58' E 117°48'0 0.0
2016-May-24 17:32N 38°58' E 117°48'0 0.0
2016-May-24 16:32N 38°58' E 117°48'0 0.0
2016-May-24 11:20N 38°58' E 117°48'0 0.0
2016-May-24 10:26N 38°58' E 117°48'0 0.0
2016-May-24 09:32N 38°58' E 117°48'0 0.0
2016-May-24 08:20N 38°58' E 117°48'0 0.0
2016-May-24 07:32N 38°58' E 117°48'0 0.0
2016-May-24 06:32N 38°58' E 117°48'0 0.0
2016-May-24 05:32N 38°58' E 117°48'0 0.0
2016-May-24 04:32N 38°58' E 117°48'0 0.0
2016-May-24 03:14N 38°58' E 117°48'0 0.0
2016-May-24 02:32N 38°58' E 117°48'0 0.0
2016-May-24 01:32N 38°58' E 117°48'0 0.0
2016-May-24 00:32N 38°58' E 117°48'0 0.0
2016-May-23 18:17N 38°58' E 117°48'0 0.0
2016-May-23 16:29N 38°58' E 117°48'0 0.0
2016-May-23 15:29N 38°58' E 117°48'0 0.0
2016-May-23 14:29N 38°58' E 117°48'0 0.0
2016-May-23 13:17N 38°58' E 117°48'0 0.0
2016-May-23 12:29N 38°58' E 117°48'0 0.0
2016-May-23 11:29N 38°58' E 117°48'0 0.0
2016-May-23 10:29N 38°58' E 117°48'0 0.0
2016-May-23 09:23N 38°58' E 117°48'0 0.0
2016-May-23 08:33N 38°58' E 117°48'2 1.5
2016-May-23 07:33N 38°58' E 117°50'9 8.5
2016-May-23 06:33N 38°56' E 118°00'14 0.4
2016-May-21 23:07N 38°50' E 118°16'26 8.9
2016-May-21 20:11N 38°49' E 118°49'67 9.4
2016-May-21 13:07N 38°41' E 120°14'6 9.3
2016-May-21 12:26N 38°42' E 120°22'9 8.8
2016-May-21 11:23N 38°41' E 120°34'17 8.5
2016-May-21 09:24N 38°37' E 120°55'8 9.1
2016-May-21 08:33N 38°33' E 121°03'10 9.4
2016-May-21 07:27N 38°27' E 121°15'9 9.8
2016-May-21 06:33N 38°23' E 121°25'1010.0
2016-May-21 05:33N 38°18' E 121°36'1010.1
2016-May-21 04:33N 38°13' E 121°47'10 9.7
2016-May-21 03:33N 38°08' E 121°57'30 9.5
2016-May-21 00:22N 37°54' E 122°31'8 9.8
2016-May-20 23:32N 37°49' E 122°39'1010.5
2016-May-20 22:33N 37°43' E 122°50'1110.9
2016-May-20 21:33N 37°35' E 122°60'1010.1
2016-May-20 20:33N 37°34' E 123°13'10 9.7
2016-May-20 19:33N 37°27' E 123°21'1010.5
2016-May-20 18:33N 37°17' E 123°22'40 9.5
2016-May-20 14:21N 36°37' E 123°19'8 9.9
2016-May-20 13:33N 36°29' E 123°20'11 9.9
2016-May-20 12:27N 36°18' E 123°20'28 9.6
2016-May-20 09:29N 35°50' E 123°21'9 9.4
2016-May-20 08:33N 35°41' E 123°21'11 9.7
2016-May-20 07:23N 35°30' E 123°22'34810.0
2016-May-18 20:29N 29°41' E 123°20'37 9.5
2016-May-18 16:33N 29°04' E 123°20'  
Track history (hours):
 
Tides and Currents Weather Stations Pressure Air Temp Water Temp Dewpoint Dewpoint Depression Visibility Wind Speed Wind Dir Waves Ship Positions

Great Hebei

Last reported at 2016-May-26 15:09 UTC. Time now 2016-May-27 04:35 UTC.
Position N 36°06' E 123°19'.

Length 295 m; draft 8.7 m.

Type: Cargo ship. MMSI: 477617100.

Date/timePositionNaut miles runAvg speedWind from/ knotsBaromVisibWave heightAir tempDewpointWater temp
2016-May-26 15:09N 36°06' E 123°19'134 9.0
2016-May-26 00:18N 38°03' E 121°59'8210.5
2016-May-25 16:33N 38°37' E 120°24'1310.5
2016-May-25 15:20N 38°39' E 120°08'103 9.5
2016-May-25 04:26N 38°57' E 117°58'8 8.9
2016-May-25 03:32N 38°58' E 117°48'0 0.2
2016-May-25 02:32N 38°58' E 117°48'0 0.0
2016-May-25 01:32N 38°58' E 117°48'0 0.0
2016-May-25 00:32N 38°58' E 117°48'0 0.0
2016-May-24 23:32N 38°58' E 117°48'0 0.0
2016-May-24 22:14N 38°58' E 117°48'0 0.0
2016-May-24 21:32N 38°58' E 117°48'0 0.0
2016-May-24 20:26N 38°58' E 117°48'0 0.0
2016-May-24 19:32N 38°58' E 117°48'0 0.0
2016-May-24 18:32N 38°58' E 117°48'0 0.0
2016-May-24 17:32N 38°58' E 117°48'0 0.0
2016-May-24 16:32N 38°58' E 117°48'0 0.0
2016-May-24 11:20N 38°58' E 117°48'0 0.0
2016-May-24 10:26N 38°58' E 117°48'0 0.0
2016-May-24 09:32N 38°58' E 117°48'0 0.0
2016-May-24 08:20N 38°58' E 117°48'0 0.0
2016-May-24 07:32N 38°58' E 117°48'0 0.0
2016-May-24 06:32N 38°58' E 117°48'0 0.0
2016-May-24 05:32N 38°58' E 117°48'0 0.0
2016-May-24 04:32N 38°58' E 117°48'0 0.0
2016-May-24 03:14N 38°58' E 117°48'0 0.0
2016-May-24 02:32N 38°58' E 117°48'0 0.0
2016-May-24 01:32N 38°58' E 117°48'0 0.0
2016-May-24 00:32N 38°58' E 117°48'0 0.0
2016-May-23 18:17N 38°58' E 117°48'0 0.0
2016-May-23 16:29N 38°58' E 117°48'0 0.0
2016-May-23 15:29N 38°58' E 117°48'0 0.0
2016-May-23 14:29N 38°58' E 117°48'0 0.0
2016-May-23 13:17N 38°58' E 117°48'0 0.0
2016-May-23 12:29N 38°58' E 117°48'0 0.0
2016-May-23 11:29N 38°58' E 117°48'0 0.0
2016-May-23 10:29N 38°58' E 117°48'0 0.0
2016-May-23 09:23N 38°58' E 117°48'0 0.0
2016-May-23 08:33N 38°58' E 117°48'2 1.5
2016-May-23 07:33N 38°58' E 117°50'9 8.5
2016-May-23 06:33N 38°56' E 118°00'14 0.4
2016-May-21 23:07N 38°50' E 118°16'26 8.9
2016-May-21 20:11N 38°49' E 118°49'67 9.4
2016-May-21 13:07N 38°41' E 120°14'6 9.3
2016-May-21 12:26N 38°42' E 120°22'9 8.8
2016-May-21 11:23N 38°41' E 120°34'17 8.5
2016-May-21 09:24N 38°37' E 120°55'8 9.1
2016-May-21 08:33N 38°33' E 121°03'10 9.4
2016-May-21 07:27N 38°27' E 121°15'9 9.8
2016-May-21 06:33N 38°23' E 121°25'1010.0
2016-May-21 05:33N 38°18' E 121°36'1010.1
2016-May-21 04:33N 38°13' E 121°47'10 9.7
2016-May-21 03:33N 38°08' E 121°57'30 9.5
2016-May-21 00:22N 37°54' E 122°31'8 9.8
2016-May-20 23:32N 37°49' E 122°39'1010.5
2016-May-20 22:33N 37°43' E 122°50'1110.9
2016-May-20 21:33N 37°35' E 122°60'1010.1
2016-May-20 20:33N 37°34' E 123°13'10 9.7
2016-May-20 19:33N 37°27' E 123°21'1010.5
2016-May-20 18:33N 37°17' E 123°22'40 9.5
2016-May-20 14:21N 36°37' E 123°19'8 9.9
2016-May-20 13:33N 36°29' E 123°20'11 9.9
2016-May-20 12:27N 36°18' E 123°20'28 9.6
2016-May-20 09:29N 35°50' E 123°21'9 9.4
2016-May-20 08:33N 35°41' E 123°21'11 9.7
2016-May-20 07:23N 35°30' E 123°22'34810.0
2016-May-18 20:29N 29°41' E 123°20'37 9.5
2016-May-18 16:33N 29°04' E 123°20'  

Dump ship's entire track history